createdAt,value
2022-12-23T00:02:20.793Z,97639.97
2022-12-23T00:04:54.493Z,97618.88
2022-12-23T00:07:26.769Z,97621.41
2022-12-23T00:09:59.275Z,97615.47
2022-12-23T00:12:49.922Z,97612.06
2022-12-23T00:15:22.697Z,97608.69
2022-12-23T00:17:55.569Z,97635.69
2022-12-23T00:20:27.443Z,97635.63
2022-12-23T00:23:05.846Z,97635.66
2022-12-23T00:25:44.764Z,97640.81
2022-12-23T00:28:21.903Z,97640.81
2022-12-23T00:30:59.886Z,97640.69
2022-12-23T00:33:36.071Z,97624.72
2022-12-23T00:36:29.030Z,97610.88
2022-12-23T00:39:20.210Z,97635.22
2022-12-23T00:42:10.263Z,97641.28
2022-12-23T00:44:43.907Z,97627.38
2022-12-23T00:47:35.740Z,97635.31
2022-12-23T00:50:09.657Z,97616.81
2022-12-23T00:52:41.557Z,97610.78
2022-12-23T00:55:14.265Z,97587.56
2022-12-23T00:57:46.147Z,97618.59
2022-12-23T01:00:19.628Z,97627.09
2022-12-23T01:03:10.652Z,97623.16
2022-12-23T01:05:42.657Z,97631.00
2022-12-23T01:08:15.226Z,97619.69
2022-12-23T01:10:47.533Z,97624.75
2022-12-23T01:13:20.403Z,97641.50
2022-12-23T01:15:53.092Z,97644.00
2022-12-23T01:18:25.658Z,97645.91
2022-12-23T01:21:07.940Z,97659.16
2022-12-23T01:23:40.516Z,97666.44
2022-12-23T01:26:12.991Z,97677.13
2022-12-23T01:28:45.309Z,97648.03
2022-12-23T01:31:17.286Z,97677.03
2022-12-23T01:33:50.071Z,97705.50
2022-12-23T01:36:22.411Z,97699.47
2022-12-23T01:38:57.026Z,97698.19
2022-12-23T01:41:52.538Z,97701.53
2022-12-23T01:44:57.187Z,97671.00
2022-12-23T01:47:36.694Z,97666.41
2022-12-23T01:50:33.255Z,97668.25
2022-12-23T01:53:23.091Z,97676.25
2022-12-23T01:56:01.907Z,97690.78
2022-12-23T01:58:42.265Z,97694.78
2022-12-23T02:01:33.210Z,97717.34
2022-12-23T02:04:13.145Z,97685.59
2022-12-23T02:07:07.595Z,97702.66
2022-12-23T02:09:41.222Z,97707.28
2022-12-23T02:12:38.166Z,97695.28
2022-12-23T02:16:10.230Z,97707.91
2022-12-23T02:19:17.990Z,97725.72
2022-12-23T02:22:14.992Z,97709.13
2022-12-23T02:24:59.925Z,97711.03
2022-12-23T02:28:14.283Z,97713.63
2022-12-23T02:31:09.583Z,97716.88
2022-12-23T02:34:02.208Z,97707.59
2022-12-23T02:36:39.069Z,97712.84
2022-12-23T02:39:39.450Z,97710.25
2022-12-23T02:42:21.098Z,97717.38
2022-12-23T02:45:10.302Z,97701.56
2022-12-23T02:47:52.627Z,97713.47
2022-12-23T02:50:35.530Z,97720.84
2022-12-23T02:53:29.885Z,97703.69
2022-12-23T02:56:03.538Z,97713.53
2022-12-23T02:58:45.018Z,97705.53
2022-12-23T03:01:19.676Z,97708.88
2022-12-23T03:03:52.675Z,97708.09
2022-12-23T03:06:38.640Z,97738.66
2022-12-23T03:09:42.169Z,97719.41
2022-12-23T03:12:44.181Z,97728.50
2022-12-23T03:15:38.600Z,97718.63
2022-12-23T03:18:56.902Z,97731.22
2022-12-23T03:21:37.140Z,97735.19
2022-12-23T03:24:37.378Z,97719.41
2022-12-23T03:27:43.917Z,97735.25
2022-12-23T03:30:19.138Z,97727.84
2022-12-23T03:33:04.843Z,97729.91
2022-12-23T03:36:13.786Z,97718.00
2022-12-23T03:38:50.121Z,97707.34
2022-12-23T03:41:31.633Z,97705.31
2022-12-23T03:44:10.795Z,97712.00
2022-12-23T03:47:11.579Z,97729.34
2022-12-23T03:49:50.141Z,97728.00
2022-12-23T03:52:28.429Z,97732.59
2022-12-23T03:55:07.210Z,97722.78
2022-12-23T03:57:52.527Z,97728.06
2022-12-23T04:00:28.360Z,97738.66
2022-12-23T04:03:28.387Z,97714.81
2022-12-23T04:06:05.881Z,97714.19
2022-12-23T04:08:39.545Z,97714.19
2022-12-23T04:11:12.711Z,97709.56
2022-12-23T04:13:48.763Z,97720.78
2022-12-23T04:16:20.981Z,97722.75
2022-12-23T04:18:53.798Z,97716.81
2022-12-23T04:21:26.757Z,97738.66
2022-12-23T04:23:58.686Z,97732.03
2022-12-23T04:26:31.429Z,97745.97
2022-12-23T04:29:03.763Z,97758.63
2022-12-23T04:31:36.588Z,97753.34
2022-12-23T04:34:08.596Z,97746.66
2022-12-23T04:36:41.342Z,97744.69
2022-12-23T04:39:13.742Z,97752.47
2022-12-23T04:41:46.476Z,97752.56
2022-12-23T04:44:18.544Z,97745.84
2022-12-23T04:46:51.389Z,97737.88
2022-12-23T04:49:23.390Z,97745.81
2022-12-23T04:51:56.133Z,97735.19
2022-12-23T04:54:28.042Z,97739.19
2022-12-23T04:57:01.061Z,97743.88
2022-12-23T04:59:34.162Z,97743.94
2022-12-23T05:02:07.205Z,97750.56
2022-12-23T05:04:39.809Z,97742.09
2022-12-23T05:07:11.902Z,97727.94
2022-12-23T05:09:47.242Z,97738.50
2022-12-23T05:12:19.245Z,97733.25
2022-12-23T05:14:52.587Z,97741.84
2022-12-23T05:17:24.926Z,97751.19
2022-12-23T05:19:56.822Z,97742.50
2022-12-23T05:22:29.574Z,97745.91
2022-12-23T05:25:01.545Z,97761.09
2022-12-23T05:27:33.962Z,97755.75
2022-12-23T05:30:08.048Z,97741.25
2022-12-23T05:32:40.789Z,97756.53
2022-12-23T05:35:14.076Z,97772.41
2022-12-23T05:37:47.420Z,97758.59
2022-12-23T05:40:24.496Z,97767.94
2022-12-23T05:42:58.056Z,97753.38
2022-12-23T05:45:30.659Z,97773.22
2022-12-23T05:48:02.773Z,97775.25
2022-12-23T05:50:35.578Z,97765.88
2022-12-23T05:53:08.799Z,97766.59
2022-12-23T05:55:40.720Z,97762.63
2022-12-23T05:58:13.629Z,97775.28
2022-12-23T06:00:45.575Z,97779.25
2022-12-23T06:03:18.591Z,97765.34
2022-12-23T06:05:52.004Z,97771.28
2022-12-23T06:08:25.693Z,97761.31
2022-12-23T06:11:00.214Z,97764.59
2022-12-23T06:13:32.165Z,97758.03
2022-12-23T06:16:05.615Z,97758.03
2022-12-23T06:18:38.262Z,97762.56
2022-12-23T06:21:10.617Z,97744.03
2022-12-23T06:23:42.984Z,97761.78
2022-12-23T06:26:16.139Z,97762.41
2022-12-23T06:28:48.065Z,97741.16
2022-12-23T06:31:21.332Z,97739.16
2022-12-23T06:33:53.352Z,97748.44
2022-12-23T06:36:26.109Z,97747.03
2022-12-23T06:38:58.834Z,97752.34
2022-12-23T06:41:30.822Z,97768.22
2022-12-23T06:44:03.599Z,97754.94
2022-12-23T06:46:36.143Z,97744.34
2022-12-23T06:49:13.146Z,97748.28
2022-12-23T06:51:46.965Z,97742.22
2022-12-23T06:54:18.904Z,97752.22
2022-12-23T06:59:42.681Z,97745.56
2022-12-23T07:02:15.550Z,97761.34
2022-12-23T07:04:47.964Z,97762.75
2022-12-23T07:07:20.772Z,97775.38
2022-12-23T07:09:53.523Z,97769.25
2022-12-23T07:12:26.162Z,97777.97
2022-12-23T07:14:59.276Z,97806.31
2022-12-23T07:17:31.457Z,97807.00
2022-12-23T07:20:04.600Z,97815.00
2022-12-23T07:22:36.985Z,97814.97
2022-12-23T07:25:09.981Z,97816.97
2022-12-23T07:27:43.052Z,97812.34
2022-12-23T07:30:15.904Z,97807.03
2022-12-23T07:32:49.725Z,97815.06
2022-12-23T07:35:21.691Z,97792.44
2022-12-23T07:37:56.508Z,97793.16
2022-12-23T07:40:28.746Z,97795.06
2022-12-23T07:43:01.366Z,97792.38
2022-12-23T07:45:33.438Z,97804.91
2022-12-23T07:48:07.135Z,97801.59
2022-12-23T07:50:39.441Z,97805.78
2022-12-23T07:53:12.205Z,97801.19
2022-12-23T07:55:45.090Z,97794.03
2022-12-23T07:58:17.843Z,97790.47
2022-12-23T08:00:50.601Z,97796.63
2022-12-23T08:03:22.980Z,97798.06
2022-12-23T08:06:09.376Z,97810.75
2022-12-23T08:08:45.717Z,97821.41
2022-12-23T08:11:17.900Z,97816.88
2022-12-23T08:13:50.780Z,97816.34
2022-12-23T08:16:22.778Z,97831.59
2022-12-23T08:18:55.597Z,97821.91
2022-12-23T08:21:27.890Z,97821.47
2022-12-23T08:24:00.627Z,97815.53
2022-12-23T08:26:33.025Z,97823.53
2022-12-23T08:29:05.847Z,97822.84
2022-12-23T08:31:37.875Z,97826.81
2022-12-23T08:34:11.100Z,97822.69
2022-12-23T08:36:43.958Z,97820.78
2022-12-23T08:39:16.158Z,97822.75
2022-12-23T08:41:49.355Z,97824.22
2022-12-23T08:44:21.876Z,97810.19
2022-12-23T08:46:59.283Z,97825.34
2022-12-23T08:49:31.234Z,97813.94
2022-12-23T08:52:04.154Z,97811.31
2022-12-23T08:54:37.317Z,97817.84
2022-12-23T08:57:10.025Z,97815.78
2022-12-23T08:59:42.275Z,97825.53
2022-12-23T09:02:15.390Z,97815.50
2022-12-23T09:04:48.221Z,97816.69
2022-12-23T09:07:20.913Z,97818.00
2022-12-23T09:09:53.649Z,97803.28
2022-12-23T09:12:26.051Z,97792.59
2022-12-23T09:14:58.427Z,97817.09
2022-12-23T09:17:31.863Z,97820.97
2022-12-23T09:20:07.443Z,97814.22
2022-12-23T09:22:40.235Z,97810.19
2022-12-23T09:25:14.589Z,97812.66
2022-12-23T09:27:46.584Z,97820.53
2022-12-23T09:30:19.444Z,97822.53
2022-12-23T09:32:51.454Z,97817.38
2022-12-23T09:35:24.490Z,97812.38
2022-12-23T09:37:57.016Z,97822.53
2022-12-23T09:40:36.497Z,97828.69
2022-12-23T09:43:30.363Z,97830.00
2022-12-23T09:46:24.470Z,97826.72
2022-12-23T09:49:05.865Z,97820.19
2022-12-23T09:51:38.746Z,97831.66
2022-12-23T09:54:21.532Z,97830.94
2022-12-23T09:57:41.432Z,97834.31
2022-12-23T10:00:18.881Z,97828.91
2022-12-23T10:03:29.574Z,97814.94
2022-12-23T10:06:20.442Z,97799.75
2022-12-23T10:08:59.770Z,97795.91
2022-12-23T10:11:41.719Z,97795.94
2022-12-23T10:14:25.796Z,97792.56
2022-12-23T10:17:03.118Z,97799.88
2022-12-23T10:19:44.240Z,97787.81
2022-12-23T10:22:20.564Z,97785.25
2022-12-23T10:24:56.274Z,97789.81
2022-12-23T10:27:43.102Z,97789.69
2022-12-23T10:33:23.884Z,97763.94
2022-12-23T10:36:23.079Z,97757.28
2022-12-23T10:39:35.812Z,97745.34
2022-12-23T10:42:34.506Z,97755.38
2022-12-23T10:45:57.202Z,97742.19
2022-12-23T10:49:23.502Z,97756.22
2022-12-23T10:52:12.592Z,97751.19
2022-12-23T10:54:47.974Z,97740.59
2022-12-23T10:57:21.241Z,97743.41
2022-12-23T10:59:54.034Z,97739.41
2022-12-23T11:03:24.124Z,97737.47
2022-12-23T11:05:58.802Z,97734.22
2022-12-23T11:08:32.494Z,97741.44
2022-12-23T11:11:05.345Z,97727.53
2022-12-23T11:13:41.162Z,97736.13
2022-12-23T11:16:24.383Z,97738.75
2022-12-23T11:19:02.072Z,97724.09
2022-12-23T11:21:35.291Z,97719.25
2022-12-23T11:24:20.373Z,97721.25
2022-12-23T11:27:03.859Z,97732.78
2022-12-23T11:29:39.753Z,97724.03
2022-12-23T11:32:29.108Z,97727.72
2022-12-23T11:35:01.357Z,97717.22
2022-12-23T11:37:43.958Z,97708.53
2022-12-23T11:40:34.961Z,97706.00
2022-12-23T11:43:14.776Z,97717.88
2022-12-23T11:45:48.086Z,97714.50
2022-12-23T11:48:30.448Z,97703.25
2022-12-23T11:51:04.285Z,97706.00
2022-12-23T11:53:37.141Z,97706.53
2022-12-23T11:56:15.545Z,97693.09
2022-12-23T11:59:04.181Z,97690.25
2022-12-23T12:01:39.727Z,97674.25
2022-12-23T12:04:24.952Z,97684.59
2022-12-23T12:06:58.167Z,97673.28
2022-12-23T12:09:32.192Z,97656.66
2022-12-23T12:12:19.908Z,97675.75
2022-12-23T12:14:58.601Z,97666.94
2022-12-23T12:17:52.674Z,97664.97
2022-12-23T12:20:36.367Z,97638.31
2022-12-23T12:23:26.188Z,97647.34
2022-12-23T12:26:33.565Z,97651.38
2022-12-23T12:29:21.656Z,97658.13
2022-12-23T12:31:58.220Z,97663.50
2022-12-23T12:35:05.122Z,97654.94
2022-12-23T12:37:53.748Z,97650.97
2022-12-23T12:40:52.095Z,97635.81
2022-12-23T12:43:38.437Z,97629.34
2022-12-23T12:46:44.176Z,97619.59
2022-12-23T12:49:46.187Z,97609.78
2022-12-23T12:52:26.824Z,97608.56
2022-12-23T12:55:19.812Z,97605.91
2022-12-23T12:57:52.771Z,97609.69
2022-12-23T13:00:25.460Z,97606.31
2022-12-23T13:03:20.143Z,97619.56
2022-12-23T13:06:30.114Z,97611.97
2022-12-23T13:09:52.496Z,97623.94
2022-12-23T13:13:17.079Z,97614.00
2022-12-23T13:16:30.706Z,97611.81
2022-12-23T13:19:22.541Z,97601.94
2022-12-23T13:22:14.701Z,97616.44
2022-12-23T13:25:10.320Z,97595.97
2022-12-23T13:27:51.030Z,97605.75
2022-12-23T13:30:28.301Z,97591.81
2022-12-23T13:33:31.868Z,97613.13
2022-12-23T13:36:42.235Z,97602.41
2022-12-23T13:39:26.839Z,97624.22
2022-12-23T13:42:05.678Z,97616.94
2022-12-23T13:44:38.908Z,97620.59
2022-12-23T13:47:38.731Z,97590.13
2022-12-23T13:50:50.893Z,97576.91
2022-12-23T13:53:47.943Z,97584.38
2022-12-23T13:56:49.899Z,97597.88
2022-12-23T13:59:22.322Z,97595.38
2022-12-23T14:01:55.510Z,97583.63
2022-12-23T14:04:35.927Z,97615.94
2022-12-23T14:07:21.456Z,97596.03
2022-12-23T14:10:09.807Z,97616.94
2022-12-23T14:12:43.091Z,97630.91
2022-12-23T14:15:50.376Z,97628.38
2022-12-23T14:18:37.418Z,97623.06
2022-12-23T14:21:49.817Z,97628.25
2022-12-23T14:24:37.367Z,97634.16
2022-12-23T14:28:02.660Z,97644.84
2022-12-23T14:30:45.320Z,97666.81
2022-12-23T14:33:32.502Z,97654.03
2022-12-23T14:36:26.785Z,97649.81
2022-12-23T14:39:14.718Z,97648.56
2022-12-23T14:41:56.528Z,97669.44
2022-12-23T14:44:39.259Z,97642.56
2022-12-23T14:47:32.321Z,97683.75
2022-12-23T14:50:33.856Z,97687.72
2022-12-23T14:53:27.075Z,97672.38
2022-12-23T14:56:40.735Z,97671.50
2022-12-23T14:59:41.950Z,97683.53
2022-12-23T15:02:28.069Z,97682.81
2022-12-23T15:05:02.312Z,97692.88
2022-12-23T15:07:38.116Z,97700.13
2022-12-23T15:13:17.956Z,97686.13
2022-12-23T15:16:00.953Z,97703.28
2022-12-23T15:19:15.429Z,97679.59
2022-12-23T15:21:54.458Z,97680.88
2022-12-23T15:24:33.451Z,97678.41
2022-12-23T15:30:00.354Z,97683.53
2022-12-23T15:32:32.723Z,97696.25
2022-12-23T15:35:07.320Z,97685.59
2022-12-23T15:37:40.429Z,97702.09
2022-12-23T15:40:36.319Z,97695.94
2022-12-23T15:43:24.270Z,97713.38
2022-12-23T15:46:15.601Z,97699.44
2022-12-23T15:48:48.651Z,97709.34
2022-12-23T15:52:05.177Z,97712.66
2022-12-23T15:54:35.344Z,97712.72
2022-12-23T15:57:07.808Z,97700.31
2022-12-23T15:59:39.931Z,97696.97
2022-12-23T16:05:32.356Z,97690.38
2022-12-23T16:08:29.121Z,97691.16
2022-12-23T16:11:21.283Z,97713.88
2022-12-23T16:14:02.907Z,97705.88
2022-12-23T16:16:44.999Z,97719.19
2022-12-23T16:20:19.908Z,97691.53
2022-12-23T16:22:58.300Z,97703.38
2022-12-23T16:25:33.428Z,97713.88
2022-12-23T16:28:22.020Z,97708.25
2022-12-23T16:30:57.796Z,97726.63
2022-12-23T16:33:43.944Z,97710.81
2022-12-23T16:36:28.193Z,97714.09
2022-12-23T16:39:10.072Z,97729.47
2022-12-23T16:41:42.419Z,97706.31
2022-12-23T16:44:15.129Z,97723.56
2022-12-23T16:46:52.179Z,97719.56
2022-12-23T16:49:28.146Z,97711.47
2022-12-23T16:52:08.039Z,97708.97
2022-12-23T16:54:40.137Z,97732.22
2022-12-23T16:57:13.399Z,97706.81
2022-12-23T16:59:47.421Z,97703.66
2022-12-23T17:02:25.896Z,97699.25
2022-12-23T17:04:58.291Z,97675.41
2022-12-23T17:07:31.084Z,97700.06
2022-12-23T17:10:03.909Z,97720.66
2022-12-23T17:12:37.130Z,97710.84
2022-12-23T17:15:20.870Z,97719.25
2022-12-23T17:17:54.291Z,97722.63
2022-12-23T17:20:26.229Z,97718.66
2022-12-23T17:23:00.518Z,97727.91
2022-12-23T17:25:32.914Z,97703.78
2022-12-23T17:28:10.897Z,97728.31
2022-12-23T17:30:43.909Z,97722.97
2022-12-23T17:33:20.664Z,97714.72
2022-12-23T17:35:53.975Z,97728.75
2022-12-23T17:38:29.915Z,97735.25
2022-12-23T17:41:01.883Z,97747.09
2022-12-23T17:43:35.391Z,97734.38
2022-12-23T17:46:13.338Z,97748.28
2022-12-23T17:48:47.481Z,97745.66
2022-12-23T17:51:23.039Z,97740.75
2022-12-23T17:53:57.925Z,97736.13
2022-12-23T17:56:31.289Z,97742.22
2022-12-23T17:59:04.131Z,97756.16
2022-12-23T18:01:37.177Z,97738.81
2022-12-23T18:04:10.000Z,97748.13
2022-12-23T18:06:41.912Z,97755.47
2022-12-23T18:09:14.773Z,97737.47
2022-12-23T18:11:47.080Z,97753.28
2022-12-23T18:14:32.238Z,97750.63
2022-12-23T18:17:04.160Z,97744.59
2022-12-23T18:19:37.954Z,97761.25
2022-12-23T18:22:19.903Z,97771.72
2022-12-23T18:24:58.830Z,97759.22
2022-12-23T18:27:31.372Z,97767.91
2022-12-23T18:30:04.493Z,97784.84
2022-12-23T18:32:36.449Z,97763.22
2022-12-23T18:35:24.644Z,97775.13
2022-12-23T18:37:57.828Z,97766.50
2022-12-23T18:40:32.876Z,97766.53
2022-12-23T18:43:05.548Z,97767.28
2022-12-23T18:45:42.144Z,97783.19
2022-12-23T18:48:14.169Z,97797.75
2022-12-23T18:50:47.097Z,97797.03
2022-12-23T18:53:24.635Z,97808.97
2022-12-23T18:56:21.537Z,97791.06
2022-12-23T18:58:53.815Z,97810.91
2022-12-23T19:01:26.895Z,97796.38
2022-12-23T19:03:58.860Z,97817.56
2022-12-23T19:06:31.597Z,97815.50
2022-12-23T19:09:03.871Z,97810.25
2022-12-23T19:11:36.600Z,97826.16
2022-12-23T19:14:11.228Z,97816.84
2022-12-23T19:16:50.937Z,97830.19
2022-12-23T19:19:24.632Z,97824.03
2022-12-23T19:21:56.557Z,97843.34
2022-12-23T19:24:29.571Z,97835.44
2022-12-23T19:27:02.600Z,97826.75
2022-12-23T19:29:35.337Z,97836.66
2022-12-23T19:32:07.528Z,97847.91
2022-12-23T19:34:40.358Z,97857.16
2022-12-23T19:37:12.738Z,97853.34
2022-12-23T19:39:44.689Z,97857.84
2022-12-23T19:42:17.721Z,97852.00
2022-12-23T19:44:49.648Z,97860.63
2022-12-23T19:47:22.794Z,97846.13
2022-12-23T19:49:55.591Z,97848.81
2022-12-23T19:52:28.346Z,97870.03
2022-12-23T19:55:00.288Z,97872.63
2022-12-23T19:57:33.856Z,97886.00
2022-12-23T20:00:08.920Z,97878.06
2022-12-23T20:02:47.507Z,97882.69
2022-12-23T20:05:22.705Z,97891.97
2022-12-23T20:07:55.012Z,97898.56
2022-12-23T20:10:28.147Z,97897.25
2022-12-23T20:13:00.745Z,97900.59
2022-12-23T20:15:33.533Z,97905.31
2022-12-23T20:18:08.011Z,97928.47
2022-12-23T20:20:44.208Z,97933.16
2022-12-23T20:23:18.442Z,97937.81
2022-12-23T20:25:51.575Z,97919.16
2022-12-23T20:28:24.472Z,97919.69
2022-12-23T20:31:09.667Z,97916.94
2022-12-23T20:33:42.728Z,97930.75
2022-12-23T20:36:17.867Z,97931.47
2022-12-23T20:38:51.960Z,97938.16
2022-12-23T20:41:28.304Z,97946.19
2022-12-23T20:44:33.437Z,97947.63
2022-12-23T20:46:53.365Z,97947.53
2022-12-23T20:49:25.712Z,97946.75
2022-12-23T20:51:58.191Z,97958.78
2022-12-23T20:54:33.754Z,97961.59
2022-12-23T20:57:07.492Z,97972.25
2022-12-23T20:59:39.835Z,97957.97
2022-12-23T21:02:13.963Z,97960.72
2022-12-23T21:04:46.681Z,97943.53
2022-12-23T21:07:18.706Z,97939.75
2022-12-23T21:09:51.510Z,97953.75
2022-12-23T21:12:24.110Z,97960.50
2022-12-23T21:14:56.914Z,97957.81
2022-12-23T21:17:31.533Z,97966.63
2022-12-23T21:20:07.701Z,97961.41
2022-12-23T21:22:40.480Z,97964.13
2022-12-23T21:25:12.388Z,97941.63
2022-12-23T21:27:45.172Z,97959.97
2022-12-23T21:30:17.129Z,97961.25
2022-12-23T21:32:49.995Z,97980.47
2022-12-23T21:35:22.393Z,97989.88
2022-12-23T21:37:54.727Z,98000.47
2022-12-23T21:40:27.124Z,98014.38
2022-12-23T21:43:03.989Z,98012.41
2022-12-23T21:45:39.783Z,98009.78
2022-12-23T21:48:12.055Z,98011.84
2022-12-23T21:50:44.786Z,98021.78
2022-12-23T21:53:16.760Z,98017.78
2022-12-23T21:58:43.256Z,98026.53
2022-12-23T22:01:20.485Z,98018.59
2022-12-23T22:06:47.682Z,98032.44
2022-12-23T22:09:20.506Z,98031.09
2022-12-23T22:11:53.481Z,98036.44
2022-12-23T22:14:25.792Z,98037.78
2022-12-23T22:16:58.560Z,98046.41
2022-12-23T22:19:30.891Z,98050.97
2022-12-23T22:22:04.380Z,98058.81
2022-12-23T22:24:36.280Z,98051.50
2022-12-23T22:27:09.502Z,98041.41
2022-12-23T22:29:41.505Z,98040.75
2022-12-23T22:32:14.261Z,98036.13
2022-12-23T22:34:46.180Z,98047.38
2022-12-23T22:37:19.031Z,98033.59
2022-12-23T22:39:51.713Z,98037.66
2022-12-23T22:42:24.466Z,98026.31
2022-12-23T22:44:56.427Z,98022.44
2022-12-23T22:47:29.225Z,98021.81
2022-12-23T22:50:01.704Z,98009.16
2022-12-23T22:52:33.620Z,98020.56
2022-12-23T22:55:07.221Z,98030.59
2022-12-23T22:57:39.579Z,98015.28
2022-12-23T23:00:12.986Z,98023.38
2022-12-23T23:02:47.151Z,98024.13
2022-12-23T23:05:19.199Z,98026.72
2022-12-23T23:07:51.959Z,98035.34
2022-12-23T23:10:23.897Z,98027.41
2022-12-23T23:12:56.047Z,98028.63
2022-12-23T23:15:28.758Z,98032.16
2022-12-23T23:18:00.651Z,98030.75
2022-12-23T23:20:33.433Z,98038.13
2022-12-23T23:23:05.854Z,98043.44
2022-12-23T23:25:37.778Z,98041.50
2022-12-23T23:28:14.153Z,98050.72
2022-12-23T23:30:46.546Z,98057.47
2022-12-23T23:33:18.920Z,98058.72
2022-12-23T23:35:56.495Z,98056.09
2022-12-23T23:38:29.521Z,98050.03
2022-12-23T23:41:01.484Z,98042.09
2022-12-23T23:43:34.224Z,98038.81
2022-12-23T23:46:09.547Z,98038.16
2022-12-23T23:48:42.338Z,98054.84
2022-12-23T23:51:14.249Z,98068.63
2022-12-23T23:53:47.368Z,98084.50
2022-12-23T23:56:25.125Z,98082.50
2022-12-23T23:58:58.711Z,98086.69
